sensor_id;sensor_type;location;lat;lon;timestamp;P1;durP1;ratioP1;P2;durP2;ratioP2
7841;SDS011;3966;51.052;13.820;2022-12-07T00:01:12;21.48;;;9.38;;
7841;SDS011;3966;51.052;13.820;2022-12-07T00:03:59;23.35;;;9.45;;
7841;SDS011;3966;51.052;13.820;2022-12-07T00:06:29;23.20;;;9.07;;
7841;SDS011;3966;51.052;13.820;2022-12-07T00:09:05;20.38;;;9.13;;
7841;SDS011;3966;51.052;13.820;2022-12-07T00:11:32;19.75;;;9.18;;
7841;SDS011;3966;51.052;13.820;2022-12-07T00:13:59;23.20;;;8.90;;
7841;SDS011;3966;51.052;13.820;2022-12-07T00:16:26;18.83;;;8.60;;
7841;SDS011;3966;51.052;13.820;2022-12-07T00:18:54;16.80;;;7.28;;
7841;SDS011;3966;51.052;13.820;2022-12-07T00:21:27;19.63;;;9.18;;
7841;SDS011;3966;51.052;13.820;2022-12-07T00:23:54;17.48;;;8.25;;
7841;SDS011;3966;51.052;13.820;2022-12-07T00:26:22;20.38;;;9.07;;
7841;SDS011;3966;51.052;13.820;2022-12-07T00:28:53;19.92;;;8.63;;
7841;SDS011;3966;51.052;13.820;2022-12-07T00:31:22;21.30;;;8.57;;
7841;SDS011;3966;51.052;13.820;2022-12-07T00:33:49;15.70;;;7.38;;
7841;SDS011;3966;51.052;13.820;2022-12-07T00:36:16;18.02;;;8.38;;
7841;SDS011;3966;51.052;13.820;2022-12-07T00:38:43;17.33;;;7.75;;
7841;SDS011;3966;51.052;13.820;2022-12-07T00:41:19;17.40;;;7.60;;
7841;SDS011;3966;51.052;13.820;2022-12-07T00:43:46;16.10;;;8.02;;
7841;SDS011;3966;51.052;13.820;2022-12-07T00:46:14;19.55;;;7.93;;
7841;SDS011;3966;51.052;13.820;2022-12-07T00:48:40;16.63;;;7.10;;
7841;SDS011;3966;51.052;13.820;2022-12-07T00:51:06;16.05;;;7.60;;
7841;SDS011;3966;51.052;13.820;2022-12-07T00:53:35;18.30;;;8.13;;
7841;SDS011;3966;51.052;13.820;2022-12-07T00:56:08;21.77;;;8.48;;
7841;SDS011;3966;51.052;13.820;2022-12-07T00:58:36;21.63;;;8.90;;
7841;SDS011;3966;51.052;13.820;2022-12-07T01:01:03;17.60;;;7.85;;
7841;SDS011;3966;51.052;13.820;2022-12-07T01:03:30;21.83;;;8.65;;
7841;SDS011;3966;51.052;13.820;2022-12-07T01:05:56;16.00;;;7.75;;
7841;SDS011;3966;51.052;13.820;2022-12-07T01:08:23;18.02;;;8.07;;
7841;SDS011;3966;51.052;13.820;2022-12-07T01:10:56;18.05;;;7.63;;
7841;SDS011;3966;51.052;13.820;2022-12-07T01:13:27;19.77;;;8.38;;
7841;SDS011;3966;51.052;13.820;2022-12-07T01:15:55;17.33;;;8.57;;
7841;SDS011;3966;51.052;13.820;2022-12-07T01:18:22;19.15;;;7.85;;
7841;SDS011;3966;51.052;13.820;2022-12-07T01:20:56;17.42;;;7.95;;
7841;SDS011;3966;51.052;13.820;2022-12-07T01:23:34;21.23;;;8.50;;
7841;SDS011;3966;51.052;13.820;2022-12-07T01:26:03;19.55;;;8.52;;
7841;SDS011;3966;51.052;13.820;2022-12-07T01:28:30;17.83;;;8.25;;
7841;SDS011;3966;51.052;13.820;2022-12-07T01:31:01;22.70;;;9.25;;
7841;SDS011;3966;51.052;13.820;2022-12-07T01:33:29;19.80;;;8.85;;
7841;SDS011;3966;51.052;13.820;2022-12-07T01:39:00;18.92;;;8.43;;
7841;SDS011;3966;51.052;13.820;2022-12-07T01:41:29;18.42;;;7.93;;
7841;SDS011;3966;51.052;13.820;2022-12-07T01:46:56;21.00;;;7.97;;
7841;SDS011;3966;51.052;13.820;2022-12-07T01:51:52;19.92;;;8.25;;
7841;SDS011;3966;51.052;13.820;2022-12-07T01:54:33;20.63;;;8.95;;
7841;SDS011;3966;51.052;13.820;2022-12-07T01:57:00;19.13;;;8.65;;
7841;SDS011;3966;51.052;13.820;2022-12-07T01:59:27;26.08;;;8.93;;
7841;SDS011;3966;51.052;13.820;2022-12-07T02:01:54;21.30;;;9.38;;
7841;SDS011;3966;51.052;13.820;2022-12-07T02:04:21;18.60;;;7.97;;
7841;SDS011;3966;51.052;13.820;2022-12-07T02:06:47;16.83;;;7.75;;
7841;SDS011;3966;51.052;13.820;2022-12-07T02:09:14;22.38;;;8.18;;
7841;SDS011;3966;51.052;13.820;2022-12-07T02:11:40;15.93;;;7.00;;
7841;SDS011;3966;51.052;13.820;2022-12-07T02:14:06;18.15;;;8.35;;
7841;SDS011;3966;51.052;13.820;2022-12-07T02:30:11;16.13;;;7.78;;
7841;SDS011;3966;51.052;13.820;2022-12-07T02:35:21;16.38;;;6.75;;
7841;SDS011;3966;51.052;13.820;2022-12-07T02:40:28;13.35;;;6.78;;
7841;SDS011;3966;51.052;13.820;2022-12-07T02:43:04;13.57;;;6.03;;
7841;SDS011;3966;51.052;13.820;2022-12-07T02:45:38;14.38;;;6.45;;
7841;SDS011;3966;51.052;13.820;2022-12-07T02:48:07;14.15;;;5.93;;
7841;SDS011;3966;51.052;13.820;2022-12-07T02:50:35;13.63;;;6.50;;
7841;SDS011;3966;51.052;13.820;2022-12-07T02:53:00;15.40;;;7.13;;
7841;SDS011;3966;51.052;13.820;2022-12-07T02:55:31;13.07;;;6.22;;
7841;SDS011;3966;51.052;13.820;2022-12-07T03:00:54;13.63;;;6.32;;
7841;SDS011;3966;51.052;13.820;2022-12-07T03:03:33;13.45;;;6.10;;
7841;SDS011;3966;51.052;13.820;2022-12-07T03:08:47;13.13;;;6.43;;
7841;SDS011;3966;51.052;13.820;2022-12-07T03:11:16;11.77;;;6.35;;
7841;SDS011;3966;51.052;13.820;2022-12-07T03:16:45;10.68;;;5.75;;
7841;SDS011;3966;51.052;13.820;2022-12-07T03:19:22;14.05;;;6.22;;
7841;SDS011;3966;51.052;13.820;2022-12-07T03:21:55;12.90;;;6.65;;
7841;SDS011;3966;51.052;13.820;2022-12-07T03:24:26;13.63;;;6.45;;
7841;SDS011;3966;51.052;13.820;2022-12-07T03:26:56;14.43;;;6.45;;
7841;SDS011;3966;51.052;13.820;2022-12-07T03:32:10;14.70;;;6.30;;
7841;SDS011;3966;51.052;13.820;2022-12-07T03:34:47;15.43;;;6.07;;
7841;SDS011;3966;51.052;13.820;2022-12-07T03:37:25;11.15;;;5.50;;
7841;SDS011;3966;51.052;13.820;2022-12-07T03:40:03;13.98;;;6.57;;
7841;SDS011;3966;51.052;13.820;2022-12-07T03:42:31;16.58;;;6.95;;
7841;SDS011;3966;51.052;13.820;2022-12-07T03:44:58;16.52;;;6.38;;
7841;SDS011;3966;51.052;13.820;2022-12-07T03:47:37;12.82;;;6.15;;
7841;SDS011;3966;51.052;13.820;2022-12-07T03:53:18;13.93;;;6.95;;
7841;SDS011;3966;51.052;13.820;2022-12-07T03:55:49;14.00;;;7.03;;
7841;SDS011;3966;51.052;13.820;2022-12-07T03:58:18;16.00;;;8.07;;
7841;SDS011;3966;51.052;13.820;2022-12-07T04:00:47;20.98;;;8.13;;
7841;SDS011;3966;51.052;13.820;2022-12-07T04:03:14;17.25;;;8.68;;
7841;SDS011;3966;51.052;13.820;2022-12-07T04:05:40;19.67;;;8.65;;
7841;SDS011;3966;51.052;13.820;2022-12-07T04:08:06;16.73;;;8.43;;
7841;SDS011;3966;51.052;13.820;2022-12-07T04:10:32;19.35;;;8.32;;
7841;SDS011;3966;51.052;13.820;2022-12-07T04:12:57;17.85;;;7.88;;
7841;SDS011;3966;51.052;13.820;2022-12-07T04:15:23;18.83;;;8.13;;
7841;SDS011;3966;51.052;13.820;2022-12-07T04:17:49;22.05;;;8.32;;
7841;SDS011;3966;51.052;13.820;2022-12-07T04:20:14;19.95;;;8.30;;
7841;SDS011;3966;51.052;13.820;2022-12-07T04:22:40;19.80;;;8.25;;
7841;SDS011;3966;51.052;13.820;2022-12-07T04:25:06;18.35;;;8.10;;
7841;SDS011;3966;51.052;13.820;2022-12-07T04:27:31;19.02;;;8.00;;
7841;SDS011;3966;51.052;13.820;2022-12-07T04:29:57;17.30;;;7.55;;
7841;SDS011;3966;51.052;13.820;2022-12-07T04:32:23;15.65;;;7.10;;
7841;SDS011;3966;51.052;13.820;2022-12-07T04:34:49;18.75;;;8.18;;
7841;SDS011;3966;51.052;13.820;2022-12-07T04:37:14;15.05;;;7.43;;
7841;SDS011;3966;51.052;13.820;2022-12-07T04:39:40;17.23;;;7.88;;
7841;SDS011;3966;51.052;13.820;2022-12-07T04:42:06;15.02;;;6.55;;
7841;SDS011;3966;51.052;13.820;2022-12-07T04:44:32;16.13;;;6.95;;
7841;SDS011;3966;51.052;13.820;2022-12-07T04:46:57;14.85;;;6.78;;
7841;SDS011;3966;51.052;13.820;2022-12-07T04:49:23;14.75;;;7.38;;
7841;SDS011;3966;51.052;13.820;2022-12-07T04:51:50;14.10;;;6.88;;
7841;SDS011;3966;51.052;13.820;2022-12-07T04:54:16;16.95;;;6.75;;
7841;SDS011;3966;51.052;13.820;2022-12-07T04:56:42;17.40;;;7.55;;
7841;SDS011;3966;51.052;13.820;2022-12-07T04:59:09;12.30;;;6.63;;
7841;SDS011;3966;51.052;13.820;2022-12-07T05:01:39;16.95;;;6.75;;
7841;SDS011;3966;51.052;13.820;2022-12-07T05:04:04;18.00;;;6.95;;
7841;SDS011;3966;51.052;13.820;2022-12-07T05:06:30;14.27;;;7.18;;
7841;SDS011;3966;51.052;13.820;2022-12-07T05:08:56;18.63;;;7.35;;
7841;SDS011;3966;51.052;13.820;2022-12-07T05:11:22;14.85;;;7.15;;
7841;SDS011;3966;51.052;13.820;2022-12-07T05:14:07;13.63;;;6.47;;
7841;SDS011;3966;51.052;13.820;2022-12-07T05:16:33;12.32;;;6.60;;
7841;SDS011;3966;51.052;13.820;2022-12-07T05:18:59;14.10;;;7.03;;
7841;SDS011;3966;51.052;13.820;2022-12-07T05:21:24;13.02;;;6.15;;
7841;SDS011;3966;51.052;13.820;2022-12-07T05:23:50;16.98;;;7.38;;
7841;SDS011;3966;51.052;13.820;2022-12-07T05:26:16;17.30;;;6.43;;
7841;SDS011;3966;51.052;13.820;2022-12-07T05:28:42;14.18;;;6.22;;
7841;SDS011;3966;51.052;13.820;2022-12-07T05:31:08;14.43;;;6.78;;
7841;SDS011;3966;51.052;13.820;2022-12-07T05:33:33;16.95;;;6.63;;
7841;SDS011;3966;51.052;13.820;2022-12-07T05:35:59;13.10;;;6.93;;
7841;SDS011;3966;51.052;13.820;2022-12-07T05:38:30;14.48;;;7.30;;
7841;SDS011;3966;51.052;13.820;2022-12-07T05:40:59;12.45;;;6.13;;
7841;SDS011;3966;51.052;13.820;2022-12-07T05:43:29;15.35;;;7.32;;
7841;SDS011;3966;51.052;13.820;2022-12-07T05:45:54;12.57;;;6.65;;
7841;SDS011;3966;51.052;13.820;2022-12-07T05:48:20;14.32;;;6.57;;
7841;SDS011;3966;51.052;13.820;2022-12-07T05:50:49;14.20;;;6.50;;
7841;SDS011;3966;51.052;13.820;2022-12-07T05:53:15;11.05;;;6.03;;
7841;SDS011;3966;51.052;13.820;2022-12-07T05:55:44;12.20;;;5.90;;
7841;SDS011;3966;51.052;13.820;2022-12-07T05:58:10;11.10;;;5.88;;
7841;SDS011;3966;51.052;13.820;2022-12-07T06:03:21;12.50;;;5.72;;
7841;SDS011;3966;51.052;13.820;2022-12-07T06:05:47;13.20;;;6.07;;
7841;SDS011;3966;51.052;13.820;2022-12-07T06:08:12;13.68;;;5.90;;
7841;SDS011;3966;51.052;13.820;2022-12-07T06:10:39;10.63;;;5.45;;
7841;SDS011;3966;51.052;13.820;2022-12-07T06:13:06;8.60;;;4.55;;
7841;SDS011;3966;51.052;13.820;2022-12-07T06:15:32;11.50;;;5.00;;
7841;SDS011;3966;51.052;13.820;2022-12-07T06:18:00;10.90;;;4.93;;
7841;SDS011;3966;51.052;13.820;2022-12-07T06:20:26;16.25;;;5.50;;
7841;SDS011;3966;51.052;13.820;2022-12-07T06:22:51;13.02;;;5.75;;
7841;SDS011;3966;51.052;13.820;2022-12-07T06:25:17;10.77;;;5.15;;
7841;SDS011;3966;51.052;13.820;2022-12-07T06:27:43;12.98;;;5.53;;
7841;SDS011;3966;51.052;13.820;2022-12-07T06:30:08;10.75;;;5.50;;
7841;SDS011;3966;51.052;13.820;2022-12-07T06:32:35;12.13;;;5.22;;
7841;SDS011;3966;51.052;13.820;2022-12-07T06:35:01;11.05;;;5.10;;
7841;SDS011;3966;51.052;13.820;2022-12-07T06:37:27;12.68;;;5.80;;
7841;SDS011;3966;51.052;13.820;2022-12-07T06:39:53;10.10;;;5.28;;
7841;SDS011;3966;51.052;13.820;2022-12-07T06:42:19;15.43;;;5.72;;
7841;SDS011;3966;51.052;13.820;2022-12-07T06:44:44;10.68;;;4.75;;
7841;SDS011;3966;51.052;13.820;2022-12-07T06:47:10;10.10;;;5.28;;
7841;SDS011;3966;51.052;13.820;2022-12-07T06:49:36;8.85;;;4.18;;
7841;SDS011;3966;51.052;13.820;2022-12-07T06:52:02;7.28;;;3.90;;
7841;SDS011;3966;51.052;13.820;2022-12-07T06:54:29;9.23;;;4.10;;
7841;SDS011;3966;51.052;13.820;2022-12-07T06:56:55;6.07;;;3.50;;
7841;SDS011;3966;51.052;13.820;2022-12-07T06:59:21;7.18;;;4.03;;
7841;SDS011;3966;51.052;13.820;2022-12-07T07:01:46;4.80;;;3.15;;
7841;SDS011;3966;51.052;13.820;2022-12-07T07:04:12;5.68;;;3.47;;
7841;SDS011;3966;51.052;13.820;2022-12-07T07:06:37;6.45;;;3.60;;
7841;SDS011;3966;51.052;13.820;2022-12-07T07:09:03;5.13;;;3.20;;
7841;SDS011;3966;51.052;13.820;2022-12-07T07:11:29;6.85;;;3.38;;
7841;SDS011;3966;51.052;13.820;2022-12-07T07:13:54;8.30;;;4.00;;
7841;SDS011;3966;51.052;13.820;2022-12-07T07:16:22;6.32;;;3.17;;
7841;SDS011;3966;51.052;13.820;2022-12-07T07:18:48;5.45;;;3.60;;
7841;SDS011;3966;51.052;13.820;2022-12-07T07:21:14;6.45;;;3.78;;
7841;SDS011;3966;51.052;13.820;2022-12-07T07:23:39;5.43;;;3.42;;
7841;SDS011;3966;51.052;13.820;2022-12-07T07:26:05;8.95;;;3.83;;
7841;SDS011;3966;51.052;13.820;2022-12-07T07:28:31;6.63;;;3.75;;
7841;SDS011;3966;51.052;13.820;2022-12-07T07:30:57;7.32;;;4.32;;
7841;SDS011;3966;51.052;13.820;2022-12-07T07:33:22;7.35;;;3.95;;
7841;SDS011;3966;51.052;13.820;2022-12-07T07:35:48;7.07;;;3.75;;
7841;SDS011;3966;51.052;13.820;2022-12-07T07:38:13;7.70;;;4.72;;
7841;SDS011;3966;51.052;13.820;2022-12-07T07:40:39;5.93;;;3.60;;
7841;SDS011;3966;51.052;13.820;2022-12-07T07:43:05;6.32;;;3.78;;
7841;SDS011;3966;51.052;13.820;2022-12-07T07:45:30;8.02;;;4.65;;
7841;SDS011;3966;51.052;13.820;2022-12-07T07:47:56;7.00;;;4.47;;
7841;SDS011;3966;51.052;13.820;2022-12-07T07:50:22;9.35;;;4.65;;
7841;SDS011;3966;51.052;13.820;2022-12-07T07:52:48;9.25;;;4.70;;
7841;SDS011;3966;51.052;13.820;2022-12-07T07:55:14;8.05;;;4.57;;
7841;SDS011;3966;51.052;13.820;2022-12-07T07:57:40;8.50;;;4.45;;
7841;SDS011;3966;51.052;13.820;2022-12-07T08:00:10;8.45;;;5.07;;
7841;SDS011;3966;51.052;13.820;2022-12-07T08:02:38;7.82;;;4.78;;
7841;SDS011;3966;51.052;13.820;2022-12-07T08:05:04;8.00;;;5.03;;
7841;SDS011;3966;51.052;13.820;2022-12-07T08:07:30;10.63;;;4.88;;
7841;SDS011;3966;51.052;13.820;2022-12-07T08:09:56;8.05;;;5.15;;
7841;SDS011;3966;51.052;13.820;2022-12-07T08:12:21;9.43;;;5.38;;
7841;SDS011;3966;51.052;13.820;2022-12-07T08:14:47;11.25;;;5.40;;
7841;SDS011;3966;51.052;13.820;2022-12-07T08:17:13;10.90;;;6.05;;
7841;SDS011;3966;51.052;13.820;2022-12-07T08:19:38;8.93;;;5.63;;
7841;SDS011;3966;51.052;13.820;2022-12-07T08:22:04;9.27;;;5.50;;
7841;SDS011;3966;51.052;13.820;2022-12-07T08:24:32;11.35;;;6.13;;
7841;SDS011;3966;51.052;13.820;2022-12-07T08:26:58;10.75;;;6.25;;
7841;SDS011;3966;51.052;13.820;2022-12-07T08:29:24;10.60;;;6.22;;
7841;SDS011;3966;51.052;13.820;2022-12-07T08:31:49;10.32;;;6.22;;
7841;SDS011;3966;51.052;13.820;2022-12-07T08:34:15;10.10;;;6.18;;
7841;SDS011;3966;51.052;13.820;2022-12-07T08:36:41;16.20;;;6.88;;
7841;SDS011;3966;51.052;13.820;2022-12-07T08:39:06;12.48;;;6.22;;
7841;SDS011;3966;51.052;13.820;2022-12-07T08:41:32;15.52;;;6.68;;
7841;SDS011;3966;51.052;13.820;2022-12-07T08:43:58;15.25;;;6.60;;
7841;SDS011;3966;51.052;13.820;2022-12-07T08:51:35;11.77;;;5.72;;
7841;SDS011;3966;51.052;13.820;2022-12-07T08:54:02;11.80;;;5.78;;
7841;SDS011;3966;51.052;13.820;2022-12-07T08:56:30;16.17;;;6.35;;
7841;SDS011;3966;51.052;13.820;2022-12-07T08:58:56;11.50;;;5.70;;
7841;SDS011;3966;51.052;13.820;2022-12-07T09:01:23;10.88;;;6.22;;
7841;SDS011;3966;51.052;13.820;2022-12-07T09:03:48;11.45;;;6.15;;
7841;SDS011;3966;51.052;13.820;2022-12-07T09:06:14;13.98;;;6.20;;
7841;SDS011;3966;51.052;13.820;2022-12-07T09:08:41;11.32;;;5.75;;
7841;SDS011;3966;51.052;13.820;2022-12-07T09:11:10;13.00;;;5.75;;
7841;SDS011;3966;51.052;13.820;2022-12-07T09:13:36;11.35;;;6.18;;
7841;SDS011;3966;51.052;13.820;2022-12-07T09:16:02;9.18;;;5.85;;
7841;SDS011;3966;51.052;13.820;2022-12-07T09:18:27;10.75;;;5.65;;
7841;SDS011;3966;51.052;13.820;2022-12-07T09:20:53;12.18;;;5.80;;
7841;SDS011;3966;51.052;13.820;2022-12-07T09:23:19;7.93;;;4.72;;
7841;SDS011;3966;51.052;13.820;2022-12-07T09:25:44;10.50;;;5.22;;
7841;SDS011;3966;51.052;13.820;2022-12-07T09:28:10;10.15;;;5.00;;
7841;SDS011;3966;51.052;13.820;2022-12-07T09:30:36;8.93;;;5.75;;
7841;SDS011;3966;51.052;13.820;2022-12-07T09:33:01;9.40;;;5.38;;
7841;SDS011;3966;51.052;13.820;2022-12-07T09:35:27;12.43;;;5.28;;
7841;SDS011;3966;51.052;13.820;2022-12-07T09:37:53;10.95;;;5.97;;
7841;SDS011;3966;51.052;13.820;2022-12-07T09:40:19;10.15;;;5.53;;
7841;SDS011;3966;51.052;13.820;2022-12-07T09:42:48;9.18;;;4.68;;
7841;SDS011;3966;51.052;13.820;2022-12-07T09:45:18;9.68;;;4.53;;
7841;SDS011;3966;51.052;13.820;2022-12-07T09:47:49;11.98;;;4.90;;
7841;SDS011;3966;51.052;13.820;2022-12-07T09:50:16;9.45;;;4.50;;
7841;SDS011;3966;51.052;13.820;2022-12-07T09:52:46;10.30;;;4.78;;
7841;SDS011;3966;51.052;13.820;2022-12-07T09:55:13;7.53;;;4.13;;
7841;SDS011;3966;51.052;13.820;2022-12-07T09:57:59;8.48;;;3.90;;
7841;SDS011;3966;51.052;13.820;2022-12-07T10:00:25;13.50;;;4.93;;
7841;SDS011;3966;51.052;13.820;2022-12-07T10:02:55;13.48;;;4.85;;
7841;SDS011;3966;51.052;13.820;2022-12-07T10:05:24;7.15;;;4.32;;
7841;SDS011;3966;51.052;13.820;2022-12-07T10:07:53;7.63;;;4.20;;
7841;SDS011;3966;51.052;13.820;2022-12-07T10:10:28;9.23;;;3.92;;
7841;SDS011;3966;51.052;13.820;2022-12-07T10:13:06;9.48;;;3.92;;
7841;SDS011;3966;51.052;13.820;2022-12-07T10:15:53;6.57;;;4.00;;
7841;SDS011;3966;51.052;13.820;2022-12-07T10:21:04;7.32;;;4.22;;
7841;SDS011;3966;51.052;13.820;2022-12-07T10:23:38;11.40;;;3.85;;
7841;SDS011;3966;51.052;13.820;2022-12-07T10:31:45;6.72;;;3.58;;
7841;SDS011;3966;51.052;13.820;2022-12-07T10:34:34;8.45;;;3.70;;
7841;SDS011;3966;51.052;13.820;2022-12-07T10:39:43;9.00;;;3.90;;
7841;SDS011;3966;51.052;13.820;2022-12-07T10:42:18;10.80;;;4.20;;
7841;SDS011;3966;51.052;13.820;2022-12-07T10:44:44;7.57;;;4.10;;
7841;SDS011;3966;51.052;13.820;2022-12-07T11:04:18;8.50;;;3.70;;
7841;SDS011;3966;51.052;13.820;2022-12-07T11:17:07;12.20;;;5.07;;
7841;SDS011;3966;51.052;13.820;2022-12-07T11:38:57;8.10;;;4.32;;
7841;SDS011;3966;51.052;13.820;2022-12-07T11:41:31;10.90;;;4.13;;
7841;SDS011;3966;51.052;13.820;2022-12-07T11:44:45;11.60;;;4.55;;
7841;SDS011;3966;51.052;13.820;2022-12-07T11:47:09;8.93;;;3.90;;
7841;SDS011;3966;51.052;13.820;2022-12-07T11:49:47;10.57;;;3.50;;
7841;SDS011;3966;51.052;13.820;2022-12-07T11:55:21;7.88;;;4.38;;
7841;SDS011;3966;51.052;13.820;2022-12-07T11:58:04;10.60;;;4.18;;
7841;SDS011;3966;51.052;13.820;2022-12-07T12:00:44;4.78;;;3.75;;
7841;SDS011;3966;51.052;13.820;2022-12-07T12:03:15;8.43;;;4.72;;
7841;SDS011;3966;51.052;13.820;2022-12-07T12:05:55;7.05;;;3.28;;
7841;SDS011;3966;51.052;13.820;2022-12-07T12:08:23;9.63;;;5.10;;
7841;SDS011;3966;51.052;13.820;2022-12-07T12:10:55;12.63;;;5.18;;
7841;SDS011;3966;51.052;13.820;2022-12-07T12:20:15;12.18;;;5.40;;
7841;SDS011;3966;51.052;13.820;2022-12-07T12:22:21;15.90;;;6.50;;
7841;SDS011;3966;51.052;13.820;2022-12-07T12:24:53;14.40;;;5.70;;
7841;SDS011;3966;51.052;13.820;2022-12-07T12:27:23;13.55;;;6.00;;
7841;SDS011;3966;51.052;13.820;2022-12-07T12:29:56;14.45;;;6.05;;
7841;SDS011;3966;51.052;13.820;2022-12-07T12:32:40;11.45;;;5.55;;
7841;SDS011;3966;51.052;13.820;2022-12-07T12:38:21;15.18;;;5.82;;
7841;SDS011;3966;51.052;13.820;2022-12-07T12:40:48;14.68;;;6.72;;
7841;SDS011;3966;51.052;13.820;2022-12-07T12:51:46;13.80;;;6.90;;
7841;SDS011;3966;51.052;13.820;2022-12-07T13:02:55;8.98;;;3.40;;
7841;SDS011;3966;51.052;13.820;2022-12-07T13:15:32;4.40;;;1.80;;
7841;SDS011;3966;51.052;13.820;2022-12-07T13:18:00;1.63;;;1.50;;
7841;SDS011;3966;51.052;13.820;2022-12-07T13:20:48;3.40;;;0.90;;
7841;SDS011;3966;51.052;13.820;2022-12-07T13:23:37;3.95;;;1.40;;
7841;SDS011;3966;51.052;13.820;2022-12-07T13:26:05;4.30;;;1.25;;
7841;SDS011;3966;51.052;13.820;2022-12-07T13:28:41;2.58;;;1.42;;
7841;SDS011;3966;51.052;13.820;2022-12-07T13:33:34;1.75;;;1.52;;
7841;SDS011;3966;51.052;13.820;2022-12-07T13:36:00;4.22;;;1.70;;
7841;SDS011;3966;51.052;13.820;2022-12-07T13:41:13;3.33;;;1.73;;
7841;SDS011;3966;51.052;13.820;2022-12-07T13:43:45;2.67;;;1.85;;
7841;SDS011;3966;51.052;13.820;2022-12-07T13:46:15;3.22;;;2.13;;
7841;SDS011;3966;51.052;13.820;2022-12-07T13:48:45;4.63;;;2.20;;
7841;SDS011;3966;51.052;13.820;2022-12-07T13:53:50;3.75;;;2.60;;
7841;SDS011;3966;51.052;13.820;2022-12-07T13:56:39;8.15;;;2.47;;
7841;SDS011;3966;51.052;13.820;2022-12-07T14:01:48;7.10;;;4.03;;
7841;SDS011;3966;51.052;13.820;2022-12-07T14:06:50;6.10;;;3.90;;
7841;SDS011;3966;51.052;13.820;2022-12-07T14:09:23;9.23;;;3.72;;
7841;SDS011;3966;51.052;13.820;2022-12-07T14:11:51;7.93;;;3.92;;
7841;SDS011;3966;51.052;13.820;2022-12-07T14:14:28;6.00;;;4.30;;
7841;SDS011;3966;51.052;13.820;2022-12-07T14:19:43;11.43;;;4.07;;
7841;SDS011;3966;51.052;13.820;2022-12-07T14:22:21;9.02;;;4.82;;
7841;SDS011;3966;51.052;13.820;2022-12-07T14:25:14;7.07;;;4.70;;
7841;SDS011;3966;51.052;13.820;2022-12-07T14:30:23;10.98;;;5.22;;
7841;SDS011;3966;51.052;13.820;2022-12-07T14:32:53;7.35;;;4.35;;
7841;SDS011;3966;51.052;13.820;2022-12-07T14:35:22;10.27;;;4.63;;
7841;SDS011;3966;51.052;13.820;2022-12-07T14:37:48;7.18;;;4.65;;
7841;SDS011;3966;51.052;13.820;2022-12-07T14:40:16;8.48;;;4.50;;
7841;SDS011;3966;51.052;13.820;2022-12-07T14:42:44;7.97;;;4.38;;
7841;SDS011;3966;51.052;13.820;2022-12-07T14:45:16;8.30;;;4.50;;
7841;SDS011;3966;51.052;13.820;2022-12-07T14:47:44;10.30;;;4.80;;
7841;SDS011;3966;51.052;13.820;2022-12-07T14:50:14;7.63;;;4.38;;
7841;SDS011;3966;51.052;13.820;2022-12-07T14:52:52;6.47;;;4.20;;
7841;SDS011;3966;51.052;13.820;2022-12-07T14:55:30;10.23;;;4.97;;
7841;SDS011;3966;51.052;13.820;2022-12-07T14:57:56;7.50;;;4.72;;
7841;SDS011;3966;51.052;13.820;2022-12-07T15:00:24;10.85;;;4.40;;
7841;SDS011;3966;51.052;13.820;2022-12-07T15:02:51;7.32;;;4.50;;
7841;SDS011;3966;51.052;13.820;2022-12-07T15:05:18;8.13;;;4.65;;
7841;SDS011;3966;51.052;13.820;2022-12-07T15:07:44;8.00;;;4.43;;
7841;SDS011;3966;51.052;13.820;2022-12-07T15:10:15;7.00;;;4.13;;
7841;SDS011;3966;51.052;13.820;2022-12-07T15:12:46;7.03;;;4.50;;
7841;SDS011;3966;51.052;13.820;2022-12-07T15:15:11;9.75;;;4.55;;
7841;SDS011;3966;51.052;13.820;2022-12-07T15:17:37;5.53;;;4.05;;
7841;SDS011;3966;51.052;13.820;2022-12-07T15:20:03;10.63;;;4.68;;
7841;SDS011;3966;51.052;13.820;2022-12-07T15:22:30;7.20;;;4.65;;
7841;SDS011;3966;51.052;13.820;2022-12-07T15:24:56;12.63;;;4.88;;
7841;SDS011;3966;51.052;13.820;2022-12-07T15:27:22;10.23;;;4.60;;
7841;SDS011;3966;51.052;13.820;2022-12-07T15:29:49;10.40;;;5.03;;
7841;SDS011;3966;51.052;13.820;2022-12-07T15:32:15;8.32;;;5.30;;
7841;SDS011;3966;51.052;13.820;2022-12-07T15:34:41;8.98;;;5.38;;
7841;SDS011;3966;51.052;13.820;2022-12-07T15:37:07;7.28;;;5.30;;
7841;SDS011;3966;51.052;13.820;2022-12-07T15:39:33;6.32;;;3.90;;
7841;SDS011;3966;51.052;13.820;2022-12-07T15:41:59;7.18;;;4.05;;
7841;SDS011;3966;51.052;13.820;2022-12-07T15:44:24;8.18;;;3.25;;
7841;SDS011;3966;51.052;13.820;2022-12-07T15:47:08;5.28;;;3.30;;
7841;SDS011;3966;51.052;13.820;2022-12-07T15:49:34;6.00;;;3.40;;
7841;SDS011;3966;51.052;13.820;2022-12-07T15:52:00;11.45;;;3.70;;
7841;SDS011;3966;51.052;13.820;2022-12-07T15:54:26;13.57;;;4.40;;
7841;SDS011;3966;51.052;13.820;2022-12-07T15:56:53;5.65;;;4.22;;
7841;SDS011;3966;51.052;13.820;2022-12-07T15:59:20;6.15;;;4.20;;
7841;SDS011;3966;51.052;13.820;2022-12-07T16:01:46;10.18;;;3.65;;
7841;SDS011;3966;51.052;13.820;2022-12-07T16:04:12;5.32;;;3.67;;
7841;SDS011;3966;51.052;13.820;2022-12-07T16:06:38;8.43;;;3.78;;
7841;SDS011;3966;51.052;13.820;2022-12-07T16:09:03;7.38;;;3.80;;
7841;SDS011;3966;51.052;13.820;2022-12-07T16:11:30;6.20;;;2.83;;
7841;SDS011;3966;51.052;13.820;2022-12-07T16:13:56;3.30;;;2.80;;
7841;SDS011;3966;51.052;13.820;2022-12-07T16:16:21;4.82;;;2.92;;
7841;SDS011;3966;51.052;13.820;2022-12-07T16:18:47;6.07;;;3.33;;
7841;SDS011;3966;51.052;13.820;2022-12-07T16:21:14;3.80;;;2.50;;
7841;SDS011;3966;51.052;13.820;2022-12-07T16:23:41;5.68;;;2.83;;
7841;SDS011;3966;51.052;13.820;2022-12-07T16:26:14;6.47;;;3.50;;
7841;SDS011;3966;51.052;13.820;2022-12-07T16:28:42;6.00;;;2.95;;
7841;SDS011;3966;51.052;13.820;2022-12-07T16:31:09;7.63;;;2.97;;
7841;SDS011;3966;51.052;13.820;2022-12-07T16:33:37;6.45;;;3.42;;
7841;SDS011;3966;51.052;13.820;2022-12-07T16:36:05;7.55;;;3.08;;
7841;SDS011;3966;51.052;13.820;2022-12-07T16:38:32;9.15;;;3.28;;
7841;SDS011;3966;51.052;13.820;2022-12-07T16:40:58;6.88;;;2.95;;
7841;SDS011;3966;51.052;13.820;2022-12-07T16:43:24;4.00;;;2.40;;
7841;SDS011;3966;51.052;13.820;2022-12-07T16:45:49;5.90;;;3.35;;
7841;SDS011;3966;51.052;13.820;2022-12-07T16:48:15;6.85;;;3.22;;
7841;SDS011;3966;51.052;13.820;2022-12-07T16:50:41;4.13;;;2.05;;
7841;SDS011;3966;51.052;13.820;2022-12-07T16:53:09;4.35;;;2.70;;
7841;SDS011;3966;51.052;13.820;2022-12-07T16:55:39;5.25;;;2.90;;
7841;SDS011;3966;51.052;13.820;2022-12-07T16:58:09;8.15;;;3.08;;
7841;SDS011;3966;51.052;13.820;2022-12-07T17:00:37;4.50;;;2.92;;
7841;SDS011;3966;51.052;13.820;2022-12-07T17:03:03;7.35;;;3.28;;
7841;SDS011;3966;51.052;13.820;2022-12-07T17:05:29;5.57;;;3.47;;
7841;SDS011;3966;51.052;13.820;2022-12-07T17:07:55;4.95;;;2.72;;
7841;SDS011;3966;51.052;13.820;2022-12-07T17:10:21;6.10;;;3.10;;
7841;SDS011;3966;51.052;13.820;2022-12-07T17:12:48;11.27;;;3.35;;
7841;SDS011;3966;51.052;13.820;2022-12-07T17:15:14;5.35;;;2.83;;
7841;SDS011;3966;51.052;13.820;2022-12-07T17:17:55;8.15;;;3.10;;
7841;SDS011;3966;51.052;13.820;2022-12-07T17:20:22;13.15;;;3.30;;
7841;SDS011;3966;51.052;13.820;2022-12-07T17:22:50;7.20;;;3.03;;
7841;SDS011;3966;51.052;13.820;2022-12-07T17:25:16;4.88;;;2.47;;
7841;SDS011;3966;51.052;13.820;2022-12-07T17:27:42;5.90;;;2.00;;
7841;SDS011;3966;51.052;13.820;2022-12-07T17:30:09;5.97;;;2.63;;
7841;SDS011;3966;51.052;13.820;2022-12-07T17:32:36;3.35;;;2.10;;
7841;SDS011;3966;51.052;13.820;2022-12-07T17:35:02;3.40;;;2.20;;
7841;SDS011;3966;51.052;13.820;2022-12-07T17:37:29;4.72;;;2.08;;
7841;SDS011;3966;51.052;13.820;2022-12-07T17:39:56;5.97;;;1.67;;
7841;SDS011;3966;51.052;13.820;2022-12-07T17:42:23;3.65;;;2.13;;
7841;SDS011;3966;51.052;13.820;2022-12-07T17:45:04;6.20;;;1.98;;
7841;SDS011;3966;51.052;13.820;2022-12-07T17:47:34;3.53;;;1.83;;